createdAt,value
2018-10-01T00:00:56.957Z,0.00
2018-10-01T00:02:49.861Z,0.00
2018-10-01T00:03:49.868Z,0.00
2018-10-01T00:05:42.777Z,0.00
2018-10-01T00:06:42.795Z,0.00
2018-10-01T00:08:35.707Z,0.00
2018-10-01T00:09:35.711Z,0.00
2018-10-01T00:11:28.612Z,0.00
2018-10-01T00:12:28.631Z,0.00
2018-10-01T00:14:21.545Z,0.00
2018-10-01T00:15:21.552Z,0.00
2018-10-01T00:17:14.452Z,0.00
2018-10-01T00:18:14.465Z,0.00
2018-10-01T00:20:07.381Z,0.00
2018-10-01T00:21:07.383Z,0.00
2018-10-01T00:23:00.331Z,0.00
2018-10-01T00:24:00.303Z,0.00
2018-10-01T00:25:53.205Z,0.00
2018-10-01T00:26:53.221Z,0.00
2018-10-01T00:28:46.139Z,0.00
2018-10-01T00:29:46.142Z,0.00
2018-10-01T00:31:39.046Z,0.00
2018-10-01T00:32:39.067Z,0.00
2018-10-01T00:34:31.973Z,0.00
2018-10-01T00:35:31.981Z,0.00
2018-10-01T00:37:24.884Z,0.00
2018-10-01T00:38:24.919Z,0.00
2018-10-01T00:40:17.882Z,0.00
2018-10-01T00:41:17.825Z,0.00
2018-10-01T00:43:10.738Z,0.00
2018-10-01T00:44:10.743Z,0.00
2018-10-01T00:46:03.646Z,0.00
2018-10-01T00:47:03.668Z,0.00
2018-10-01T00:48:56.580Z,0.00
2018-10-01T00:49:56.585Z,0.00
2018-10-01T00:51:49.486Z,0.00
2018-10-01T00:52:49.504Z,0.00
2018-10-01T00:54:42.406Z,0.00
2018-10-01T00:55:42.421Z,0.00
2018-10-01T00:57:35.382Z,0.00
2018-10-01T00:58:35.348Z,0.00
2018-10-01T01:00:28.290Z,0.00
2018-10-01T01:01:28.265Z,0.00
2018-10-01T01:03:22.180Z,0.00
2018-10-01T01:04:22.187Z,0.00
2018-10-01T01:06:15.086Z,0.00
2018-10-01T01:07:15.105Z,0.00
2018-10-01T01:09:08.015Z,0.00
2018-10-01T01:10:08.025Z,0.00
2018-10-01T01:12:01.102Z,0.00
2018-10-01T01:13:01.124Z,0.00
2018-10-01T01:14:54.032Z,0.00
2018-10-01T01:15:54.039Z,0.00
2018-10-01T01:17:46.944Z,0.00
2018-10-01T01:18:46.960Z,0.00
2018-10-01T01:20:39.871Z,0.00
2018-10-01T01:21:39.881Z,0.00
2018-10-01T01:23:32.803Z,0.00
2018-10-01T01:24:32.797Z,0.00
2018-10-01T01:26:25.698Z,0.00
2018-10-01T01:27:25.726Z,0.00
2018-10-01T01:29:18.637Z,0.00
2018-10-01T01:30:18.643Z,0.00
2018-10-01T01:32:11.543Z,0.00
2018-10-01T01:33:11.561Z,0.00
2018-10-01T01:35:04.472Z,0.00
2018-10-01T01:36:04.484Z,0.00
2018-10-01T01:37:57.384Z,0.00
2018-10-01T01:38:57.400Z,0.00
2018-10-01T01:40:50.310Z,0.00
2018-10-01T01:41:50.322Z,0.00
2018-10-01T01:43:43.240Z,0.00
2018-10-01T01:44:43.241Z,0.00
2018-10-01T01:46:36.135Z,0.00
2018-10-01T01:47:36.155Z,0.00
2018-10-01T01:49:29.090Z,0.00
2018-10-01T01:50:29.075Z,0.00
2018-10-01T01:52:22.000Z,0.00
2018-10-01T01:53:21.995Z,0.00
2018-10-01T01:55:14.923Z,0.00
2018-10-01T01:56:14.910Z,0.00
2018-10-01T01:58:07.835Z,0.00
2018-10-01T01:59:07.829Z,0.00
2018-10-01T02:01:00.741Z,0.00
2018-10-01T02:02:00.748Z,0.00
2018-10-01T02:03:53.645Z,0.00
2018-10-01T02:04:53.664Z,0.00
2018-10-01T02:06:47.581Z,0.00
2018-10-01T02:07:47.591Z,0.00
2018-10-01T02:09:40.506Z,0.00
2018-10-01T02:10:40.515Z,0.00
2018-10-01T02:12:33.418Z,0.00
2018-10-01T02:13:33.431Z,0.00
2018-10-01T02:15:26.347Z,0.00
2018-10-01T02:16:26.354Z,0.00
2018-10-01T02:18:19.256Z,0.00
2018-10-01T02:19:19.272Z,0.00
2018-10-01T02:21:12.186Z,0.00
2018-10-01T02:22:12.192Z,0.00
2018-10-01T02:24:05.096Z,0.00
2018-10-01T02:25:05.114Z,0.00
2018-10-01T02:26:58.022Z,0.00
2018-10-01T02:27:58.032Z,0.00
2018-10-01T02:29:50.941Z,0.00
2018-10-01T02:30:50.947Z,0.00
2018-10-01T02:32:43.852Z,0.00
2018-10-01T02:33:43.874Z,0.00
2018-10-01T02:35:36.780Z,0.00
2018-10-01T02:36:36.790Z,0.00
2018-10-01T02:38:29.692Z,0.00
2018-10-01T02:39:29.709Z,0.00
2018-10-01T02:41:22.625Z,0.00
2018-10-01T02:42:22.633Z,0.00
2018-10-01T02:44:15.533Z,0.00
2018-10-01T02:45:15.550Z,0.00
2018-10-01T02:47:08.458Z,0.00
2018-10-01T02:48:08.472Z,0.00
2018-10-01T02:50:01.384Z,0.00
2018-10-01T02:51:01.390Z,0.00
2018-10-01T02:52:54.291Z,0.00
2018-10-01T02:53:54.309Z,0.00
2018-10-01T02:55:47.236Z,0.00
2018-10-01T02:56:47.230Z,0.00
2018-10-01T02:58:40.133Z,0.00
2018-10-01T02:59:40.151Z,0.00
2018-10-01T03:01:33.058Z,0.00
2018-10-01T03:02:33.067Z,0.00
2018-10-01T03:04:25.968Z,0.00
2018-10-01T03:05:25.987Z,0.00
2018-10-01T03:07:18.900Z,0.00
2018-10-01T03:08:18.902Z,0.00
2018-10-01T03:10:11.812Z,0.00
2018-10-01T03:11:11.820Z,0.00
2018-10-01T03:13:04.731Z,0.00
2018-10-01T03:14:04.740Z,0.00
2018-10-01T03:15:57.690Z,0.00
2018-10-01T03:16:57.663Z,0.00
2018-10-01T03:18:50.552Z,0.00
2018-10-01T03:19:57.695Z,0.00
2018-10-01T03:21:50.643Z,0.00
2018-10-01T03:22:50.617Z,0.00
2018-10-01T03:24:43.589Z,0.00
2018-10-01T03:25:43.528Z,0.00
2018-10-01T03:27:29.322Z,0.00
2018-10-01T03:28:29.331Z,0.00
2018-10-01T03:30:22.247Z,0.00
2018-10-01T03:31:22.238Z,0.00
2018-10-01T03:33:15.155Z,0.00
2018-10-01T03:34:15.156Z,0.00
2018-10-01T03:36:08.112Z,0.00
2018-10-01T03:37:08.070Z,0.00
2018-10-01T03:39:01.158Z,0.00
2018-10-01T03:40:01.192Z,0.00
2018-10-01T03:41:54.079Z,0.00
2018-10-01T03:42:54.088Z,0.00
2018-10-01T03:44:46.986Z,0.00
2018-10-01T03:45:47.012Z,0.00
2018-10-01T03:47:39.914Z,0.00
2018-10-01T03:48:39.920Z,0.00
2018-10-01T03:50:32.852Z,0.00
2018-10-01T03:51:32.860Z,0.00
2018-10-01T03:53:25.755Z,0.00
2018-10-01T03:54:25.775Z,0.00
2018-10-01T03:56:18.691Z,0.00
2018-10-01T03:57:18.687Z,0.00
2018-10-01T03:59:11.583Z,0.00
2018-10-01T04:00:11.600Z,0.00
2018-10-01T04:02:04.684Z,0.00
2018-10-01T04:03:04.732Z,0.00
2018-10-01T04:04:57.593Z,0.00
2018-10-01T04:05:57.613Z,0.00
2018-10-01T04:07:50.520Z,0.00
2018-10-01T04:08:50.558Z,0.00
2018-10-01T04:10:43.435Z,0.00
2018-10-01T04:11:43.445Z,0.00
2018-10-01T04:13:36.350Z,0.00
2018-10-01T04:14:36.355Z,0.00
2018-10-01T04:16:29.263Z,0.00
2018-10-01T04:17:29.271Z,0.00
2018-10-01T04:19:22.168Z,0.00
2018-10-01T04:20:22.187Z,0.00
2018-10-01T04:22:15.095Z,0.00
2018-10-01T04:23:15.103Z,0.00
2018-10-01T04:25:08.010Z,0.00
2018-10-01T04:26:08.029Z,0.00
2018-10-01T04:28:00.940Z,0.00
2018-10-01T04:29:00.947Z,0.00
2018-10-01T04:30:53.857Z,0.00
2018-10-01T04:31:53.864Z,0.00
2018-10-01T04:33:46.776Z,0.00
2018-10-01T04:34:46.789Z,0.00
2018-10-01T04:36:39.697Z,0.00
2018-10-01T04:37:39.703Z,0.00
2018-10-01T04:39:32.629Z,0.00
2018-10-01T04:40:32.627Z,0.00
2018-10-01T04:42:25.530Z,0.00
2018-10-01T04:43:25.537Z,0.00
2018-10-01T04:45:18.443Z,0.00
2018-10-01T04:46:18.466Z,0.00
2018-10-01T04:48:11.409Z,0.00
2018-10-01T04:49:11.389Z,0.00
2018-10-01T04:51:04.312Z,0.00
2018-10-01T04:52:04.312Z,0.00
2018-10-01T04:53:57.350Z,0.00
2018-10-01T04:54:57.222Z,0.00
2018-10-01T04:56:50.154Z,0.00
2018-10-01T04:57:50.131Z,0.00
2018-10-01T04:59:43.055Z,0.00
2018-10-01T05:00:43.052Z,0.00
2018-10-01T05:02:35.963Z,0.00
2018-10-01T05:03:35.967Z,0.00
2018-10-01T05:05:28.866Z,0.00
2018-10-01T05:06:28.885Z,0.00
2018-10-01T05:08:21.794Z,0.00
2018-10-01T05:09:21.802Z,0.00
2018-10-01T05:11:14.714Z,0.00
2018-10-01T05:12:14.716Z,0.00
2018-10-01T05:14:07.613Z,0.00
2018-10-01T05:15:07.630Z,0.00
2018-10-01T05:17:00.538Z,0.00
2018-10-01T05:18:00.544Z,0.00
2018-10-01T05:19:53.448Z,0.00
2018-10-01T05:20:53.463Z,0.00
2018-10-01T05:22:46.372Z,0.00
2018-10-01T05:23:46.379Z,0.00
2018-10-01T05:25:39.287Z,5.63
2018-10-01T05:26:39.296Z,5.63
2018-10-01T05:28:32.204Z,5.63
2018-10-01T05:29:32.209Z,5.63
2018-10-01T05:31:25.116Z,5.63
2018-10-01T05:32:25.124Z,5.63
2018-10-01T05:34:18.021Z,5.63
2018-10-01T05:35:18.040Z,11.25
2018-10-01T05:37:10.943Z,11.25
2018-10-01T05:38:10.949Z,11.25
2018-10-01T05:40:03.853Z,11.25
2018-10-01T05:41:03.865Z,11.25
2018-10-01T05:42:56.784Z,16.88
2018-10-01T05:43:56.785Z,16.88
2018-10-01T05:45:49.687Z,16.88
2018-10-01T05:46:49.789Z,16.88
2018-10-01T05:48:42.808Z,16.88
2018-10-01T05:49:42.815Z,22.50
2018-10-01T05:51:35.722Z,22.50
2018-10-01T05:52:35.728Z,22.50
2018-10-01T05:54:28.626Z,28.13
2018-10-01T05:55:28.643Z,28.13
2018-10-01T05:57:21.557Z,28.13
2018-10-01T05:58:21.557Z,28.13
2018-10-01T06:00:14.454Z,28.13
2018-10-01T06:01:14.472Z,28.13
2018-10-01T06:03:07.390Z,33.75
2018-10-01T06:04:07.387Z,33.75
2018-10-01T06:06:00.284Z,33.75
2018-10-01T06:07:00.300Z,33.75
2018-10-01T06:08:53.209Z,33.75
2018-10-01T06:09:53.213Z,33.75
2018-10-01T06:11:46.148Z,33.75
2018-10-01T06:12:46.130Z,39.38
2018-10-01T06:14:39.036Z,39.38
2018-10-01T06:15:39.042Z,39.38
2018-10-01T06:17:31.953Z,45.00
2018-10-01T06:18:31.958Z,45.00
2018-10-01T06:20:24.856Z,50.63
2018-10-01T06:21:24.875Z,50.63
2018-10-01T06:23:17.776Z,61.88
2018-10-01T06:24:17.784Z,61.88
2018-10-01T06:26:10.686Z,78.75
2018-10-01T06:27:10.705Z,78.75
2018-10-01T06:29:04.605Z,84.38
2018-10-01T06:30:04.610Z,90.00
2018-10-01T06:31:57.508Z,95.63
2018-10-01T06:32:57.521Z,101.25
2018-10-01T06:34:50.432Z,112.50
2018-10-01T06:35:50.438Z,118.13
2018-10-01T06:37:43.345Z,112.50
2018-10-01T06:38:43.374Z,106.88
2018-10-01T06:40:36.255Z,95.63
2018-10-01T06:41:36.339Z,95.63
2018-10-01T06:43:29.177Z,95.63
2018-10-01T06:44:29.184Z,95.63
2018-10-01T06:46:22.103Z,90.00
2018-10-01T06:47:22.114Z,90.00
2018-10-01T06:49:15.021Z,84.38
2018-10-01T06:50:15.025Z,84.38
2018-10-01T06:52:07.928Z,84.38
2018-10-01T06:53:07.944Z,73.13
2018-10-01T06:55:00.855Z,73.13
2018-10-01T06:56:00.862Z,67.50
2018-10-01T06:57:53.765Z,67.50
2018-10-01T06:58:53.781Z,67.50
2018-10-01T07:00:46.696Z,73.13
2018-10-01T07:01:46.691Z,84.38
2018-10-01T07:03:39.595Z,90.00
2018-10-01T07:04:39.600Z,95.63
2018-10-01T07:06:32.513Z,90.00
2018-10-01T07:07:32.516Z,90.00
2018-10-01T07:09:25.451Z,84.38
2018-10-01T07:10:25.438Z,84.38
2018-10-01T07:12:18.407Z,90.00
2018-10-01T07:13:18.368Z,90.00
2018-10-01T07:15:11.257Z,95.63
2018-10-01T07:16:11.333Z,95.63
2018-10-01T07:18:04.174Z,95.63
2018-10-01T07:19:04.183Z,95.63
2018-10-01T07:20:57.077Z,101.25
2018-10-01T07:21:57.093Z,101.25
2018-10-01T07:23:50.000Z,106.88
2018-10-01T07:24:50.011Z,101.25
2018-10-01T07:26:42.911Z,106.88
2018-10-01T07:27:42.925Z,106.88
2018-10-01T07:29:36.828Z,106.88
2018-10-01T07:30:36.834Z,106.88
2018-10-01T07:32:29.735Z,106.88
2018-10-01T07:33:29.752Z,106.88
2018-10-01T07:35:22.732Z,106.88
2018-10-01T07:36:22.666Z,106.88
2018-10-01T07:38:15.574Z,106.88
2018-10-01T07:39:15.582Z,112.50
2018-10-01T07:41:08.492Z,112.50
2018-10-01T07:42:08.499Z,112.50
2018-10-01T07:44:01.407Z,112.50
2018-10-01T07:45:01.597Z,112.50
2018-10-01T07:46:54.314Z,112.50
2018-10-01T07:47:54.333Z,112.50
2018-10-01T07:49:48.244Z,118.13
2018-10-01T07:50:48.379Z,118.13
2018-10-01T07:52:41.218Z,118.13
2018-10-01T07:53:41.207Z,118.13
2018-10-01T07:55:34.129Z,118.13
2018-10-01T07:56:34.125Z,118.13
2018-10-01T07:58:27.038Z,118.13
2018-10-01T07:59:27.096Z,118.13
2018-10-01T08:01:19.952Z,118.13
2018-10-01T08:02:19.983Z,118.13
2018-10-01T08:04:12.883Z,118.13
2018-10-01T08:05:12.885Z,118.13
2018-10-01T08:07:05.793Z,118.13
2018-10-01T08:08:05.853Z,118.13
2018-10-01T08:09:58.718Z,118.13
2018-10-01T08:10:58.725Z,118.13
2018-10-01T08:12:51.631Z,118.13
2018-10-01T08:13:51.647Z,118.13
2018-10-01T08:15:44.574Z,118.13
2018-10-01T08:16:44.565Z,112.50
2018-10-01T08:18:37.473Z,112.50
2018-10-01T08:19:37.483Z,112.50
2018-10-01T08:21:30.385Z,112.50
2018-10-01T08:22:30.401Z,112.50
2018-10-01T08:24:23.309Z,112.50
2018-10-01T08:25:23.317Z,112.50
2018-10-01T08:27:16.218Z,118.13
2018-10-01T08:28:16.236Z,112.50
2018-10-01T08:30:09.152Z,112.50
2018-10-01T08:31:09.157Z,112.50
2018-10-01T08:33:02.057Z,118.13
2018-10-01T08:34:02.071Z,112.50
2018-10-01T08:35:54.981Z,112.50
2018-10-01T08:36:54.991Z,112.50
2018-10-01T08:38:47.932Z,112.50
2018-10-01T08:39:47.909Z,112.50
2018-10-01T08:41:40.975Z,112.50
2018-10-01T08:42:41.001Z,112.50
2018-10-01T08:44:33.915Z,112.50
2018-10-01T08:45:33.917Z,112.50
2018-10-01T08:47:26.836Z,118.13
2018-10-01T08:48:26.854Z,118.13
2018-10-01T08:50:19.809Z,118.13
2018-10-01T08:51:19.767Z,118.13
2018-10-01T08:53:12.742Z,118.13
2018-10-01T08:54:12.687Z,118.13
2018-10-01T08:56:05.640Z,157.50
2018-10-01T08:57:05.607Z,140.63
2018-10-01T08:58:58.535Z,123.75
2018-10-01T08:59:58.529Z,123.75
2018-10-01T09:01:51.460Z,123.75
2018-10-01T09:02:51.455Z,123.75
2018-10-01T09:04:44.369Z,140.63
2018-10-01T09:05:44.376Z,135.00
2018-10-01T09:07:37.277Z,163.13
2018-10-01T09:08:37.301Z,151.88
2018-10-01T09:10:30.207Z,135.00
2018-10-01T09:11:30.302Z,135.00
2018-10-01T09:13:23.133Z,146.25
2018-10-01T09:14:23.175Z,157.50
2018-10-01T09:16:16.093Z,146.25
2018-10-01T09:17:16.117Z,168.75
2018-10-01T09:19:08.978Z,151.88
2018-10-01T09:20:09.023Z,146.25
2018-10-01T09:22:01.912Z,196.88
2018-10-01T09:23:01.969Z,174.38
2018-10-01T09:24:54.821Z,213.75
2018-10-01T09:25:54.843Z,191.25
2018-10-01T09:27:47.755Z,264.38
2018-10-01T09:28:47.756Z,247.50
2018-10-01T09:30:40.683Z,236.25
2018-10-01T09:31:40.712Z,241.88
2018-10-01T09:33:33.594Z,315.00
2018-10-01T09:34:33.620Z,360.00
2018-10-01T09:36:26.523Z,230.63
2018-10-01T09:37:26.532Z,208.13
2018-10-01T09:39:19.442Z,236.25
2018-10-01T09:40:19.499Z,275.63
2018-10-01T09:42:12.458Z,213.75
2018-10-01T09:43:12.401Z,191.25
2018-10-01T09:45:05.326Z,208.13
2018-10-01T09:46:05.382Z,202.50
2018-10-01T09:47:58.298Z,168.75
2018-10-01T09:48:58.268Z,157.50
2018-10-01T09:50:51.185Z,230.63
2018-10-01T09:51:51.196Z,230.63
2018-10-01T09:53:44.117Z,298.13
2018-10-01T09:54:44.117Z,388.13
2018-10-01T09:56:37.118Z,320.63
2018-10-01T09:57:37.045Z,320.63
2018-10-01T09:59:29.949Z,309.38
2018-10-01T10:00:29.967Z,286.88
2018-10-01T10:02:22.907Z,337.50
2018-10-01T10:03:22.893Z,320.63
2018-10-01T10:05:16.032Z,309.38
2018-10-01T10:06:15.999Z,303.75
2018-10-01T10:08:08.975Z,354.38
2018-10-01T10:09:08.924Z,371.25
2018-10-01T10:11:01.855Z,393.75
2018-10-01T10:12:01.850Z,399.38
2018-10-01T10:13:54.758Z,399.38
2018-10-01T10:14:54.780Z,382.50
2018-10-01T10:16:47.826Z,264.38
2018-10-01T10:17:47.747Z,196.88
2018-10-01T10:19:40.631Z,118.13
2018-10-01T10:20:40.630Z,112.50
2018-10-01T10:22:33.650Z,146.25
2018-10-01T10:23:33.563Z,157.50
2018-10-01T10:25:26.512Z,208.13
2018-10-01T10:26:26.548Z,219.38
2018-10-01T10:28:19.421Z,196.88
2018-10-01T10:29:19.412Z,180.00
2018-10-01T10:31:12.343Z,202.50
2018-10-01T10:32:12.455Z,264.38
2018-10-01T10:34:05.325Z,382.50
2018-10-01T10:35:05.276Z,382.50
2018-10-01T10:36:58.242Z,337.50
2018-10-01T10:37:58.252Z,292.50
2018-10-01T10:39:51.105Z,225.00
2018-10-01T10:40:51.124Z,213.75
2018-10-01T10:42:44.044Z,168.75
2018-10-01T10:43:44.050Z,157.50
2018-10-01T10:45:37.006Z,191.25
2018-10-01T10:46:37.000Z,174.38
2018-10-01T10:48:29.959Z,140.63
2018-10-01T10:49:29.963Z,157.50
2018-10-01T10:51:22.870Z,135.00
2018-10-01T10:52:22.908Z,135.00
2018-10-01T10:54:15.867Z,146.25
2018-10-01T10:55:15.816Z,174.38
2018-10-01T10:57:08.859Z,309.38
2018-10-01T10:58:08.737Z,427.50
2018-10-01T11:00:01.642Z,354.38
2018-10-01T11:01:01.662Z,376.88
2018-10-01T11:02:54.573Z,360.00
2018-10-01T11:03:54.585Z,326.25
2018-10-01T11:05:47.491Z,241.88
2018-10-01T11:06:47.510Z,196.88
2018-10-01T11:08:40.504Z,151.88
2018-10-01T11:09:40.436Z,135.00
2018-10-01T11:11:33.344Z,118.13
2018-10-01T11:12:33.375Z,118.13
2018-10-01T11:14:26.332Z,123.75
2018-10-01T11:15:26.326Z,123.75
2018-10-01T11:17:19.241Z,135.00
2018-10-01T11:18:19.223Z,140.63
2018-10-01T11:20:12.149Z,146.25
2018-10-01T11:21:12.144Z,163.13
2018-10-01T11:23:05.049Z,191.25
2018-10-01T11:24:05.069Z,219.38
2018-10-01T11:25:57.983Z,348.75
2018-10-01T11:26:58.034Z,326.25
2018-10-01T11:28:50.907Z,230.63
2018-10-01T11:31:03.803Z,208.13
2018-10-01T11:32:03.887Z,180.00
2018-10-01T11:33:56.776Z,106.88
2018-10-01T11:34:56.876Z,90.00
2018-10-01T11:36:49.673Z,78.75
2018-10-01T11:37:49.665Z,73.13
2018-10-01T11:39:42.673Z,78.75
2018-10-01T11:40:42.591Z,90.00
2018-10-01T11:42:35.498Z,106.88
2018-10-01T11:43:35.519Z,118.13
2018-10-01T11:45:28.460Z,146.25
2018-10-01T11:46:28.425Z,174.38
2018-10-01T11:48:21.335Z,163.13
2018-10-01T11:49:21.349Z,151.88
2018-10-01T11:51:14.323Z,146.25
2018-10-01T11:52:14.268Z,157.50
2018-10-01T11:54:07.188Z,174.38
2018-10-01T11:55:07.187Z,174.38
2018-10-01T11:57:00.162Z,196.88
2018-10-01T11:58:00.121Z,196.88
2018-10-01T11:59:53.008Z,208.13
2018-10-01T12:00:53.024Z,213.75
2018-10-01T12:02:45.930Z,230.63
2018-10-01T12:03:46.000Z,236.25
2018-10-01T12:05:39.842Z,230.63
2018-10-01T12:06:46.978Z,225.00
2018-10-01T12:08:32.754Z,202.50
2018-10-01T12:09:39.931Z,185.63
2018-10-01T12:11:25.681Z,163.13
2018-10-01T12:12:25.698Z,163.13
2018-10-01T12:14:18.762Z,157.50
2018-10-01T12:15:18.999Z,146.25
2018-10-01T12:17:11.751Z,135.00
2018-10-01T12:18:11.701Z,129.38
2018-10-01T12:20:04.608Z,123.75
2018-10-01T12:21:04.680Z,123.75
2018-10-01T12:22:57.529Z,118.13
2018-10-01T12:23:57.538Z,118.13
2018-10-01T12:25:50.437Z,118.13
2018-10-01T12:26:50.455Z,112.50
2018-10-01T12:28:43.370Z,112.50
2018-10-01T12:29:43.398Z,118.13
2018-10-01T12:31:36.287Z,112.50
2018-10-01T12:32:36.298Z,112.50
2018-10-01T12:34:29.209Z,118.13
2018-10-01T12:35:29.217Z,118.13
2018-10-01T12:37:22.127Z,135.00
2018-10-01T12:38:22.140Z,140.63
2018-10-01T12:40:15.040Z,157.50
2018-10-01T12:41:15.058Z,151.88
2018-10-01T12:43:07.966Z,146.25
2018-10-01T12:44:07.976Z,129.38
2018-10-01T12:46:00.881Z,118.13
2018-10-01T12:47:00.896Z,112.50
2018-10-01T12:48:53.810Z,106.88
2018-10-01T12:49:53.819Z,106.88
2018-10-01T12:51:46.797Z,106.88
2018-10-01T12:52:46.737Z,106.88
2018-10-01T12:54:39.835Z,123.75
2018-10-01T12:55:39.839Z,129.38
2018-10-01T12:57:32.783Z,135.00
2018-10-01T12:58:32.760Z,140.63
2018-10-01T13:00:25.678Z,146.25
2018-10-01T13:01:25.696Z,146.25
2018-10-01T13:03:18.608Z,168.75
2018-10-01T13:04:18.616Z,191.25
2018-10-01T13:06:11.536Z,241.88
2018-10-01T13:07:11.536Z,258.75
2018-10-01T13:09:04.452Z,281.25
2018-10-01T13:10:04.459Z,303.75
2018-10-01T13:11:58.425Z,382.50
2018-10-01T13:12:58.376Z,399.38
2018-10-01T13:14:51.291Z,382.50
2018-10-01T13:15:51.302Z,315.00
2018-10-01T13:17:44.246Z,326.25
2018-10-01T13:18:44.295Z,365.63
2018-10-01T13:20:37.454Z,309.38
2018-10-01T13:21:37.164Z,241.88
2018-10-01T13:23:30.119Z,118.13
2018-10-01T13:24:30.154Z,61.88
2018-10-01T13:26:23.052Z,28.13
2018-10-01T13:27:23.057Z,28.13
2018-10-01T13:29:15.978Z,33.75
2018-10-01T13:30:16.071Z,39.38
2018-10-01T13:32:08.971Z,45.00
2018-10-01T13:33:08.911Z,50.63
2018-10-01T13:35:01.981Z,50.63
2018-10-01T13:36:02.075Z,56.25
2018-10-01T13:37:54.915Z,61.88
2018-10-01T13:38:54.915Z,73.13
2018-10-01T13:40:47.823Z,101.25
2018-10-01T13:41:47.837Z,123.75
2018-10-01T13:43:40.735Z,174.38
2018-10-01T13:44:40.957Z,202.50
2018-10-01T13:46:33.660Z,230.63
2018-10-01T13:47:33.672Z,241.88
2018-10-01T13:49:26.626Z,253.13
2018-10-01T13:50:26.607Z,253.13
2018-10-01T13:52:19.723Z,230.63
2018-10-01T13:53:19.687Z,219.38
2018-10-01T13:55:12.457Z,191.25
2018-10-01T13:56:12.459Z,174.38
2018-10-01T13:58:05.403Z,157.50
2018-10-01T13:59:05.377Z,146.25
2018-10-01T14:00:58.288Z,129.38
2018-10-01T14:01:58.303Z,123.75
2018-10-01T14:03:51.237Z,118.13
2018-10-01T14:04:51.293Z,118.13
2018-10-01T14:06:44.160Z,112.50
2018-10-01T14:07:44.232Z,112.50
2018-10-01T14:09:37.143Z,118.13
2018-10-01T14:10:37.148Z,123.75
2018-10-01T14:12:30.060Z,157.50
2018-10-01T14:13:30.116Z,196.88
2018-10-01T14:15:22.978Z,191.25
2018-10-01T14:16:22.990Z,208.13
2018-10-01T14:18:15.888Z,236.25
2018-10-01T14:19:15.982Z,236.25
2018-10-01T14:21:09.015Z,219.38
2018-10-01T14:22:09.026Z,219.38
2018-10-01T14:24:01.927Z,213.75
2018-10-01T14:25:01.985Z,281.25
2018-10-01T14:26:54.857Z,309.38
2018-10-01T14:27:54.866Z,146.25
2018-10-01T14:29:48.767Z,67.50
2018-10-01T14:30:48.860Z,78.75
2018-10-01T14:32:41.698Z,135.00
2018-10-01T14:33:41.762Z,174.38
2018-10-01T14:35:34.615Z,168.75
2018-10-01T14:36:34.680Z,196.88
2018-10-01T14:38:27.565Z,298.13
2018-10-01T14:39:27.552Z,253.13
2018-10-01T14:41:20.464Z,225.00
2018-10-01T14:42:20.525Z,225.00
2018-10-01T14:44:13.377Z,225.00
2018-10-01T14:45:13.393Z,219.38
2018-10-01T14:47:06.304Z,208.13
2018-10-01T14:48:06.378Z,202.50
2018-10-01T14:49:59.216Z,174.38
2018-10-01T14:50:59.267Z,168.75
2018-10-01T14:52:52.150Z,180.00
2018-10-01T14:53:52.158Z,168.75
2018-10-01T14:55:45.063Z,135.00
2018-10-01T14:56:45.125Z,118.13
2018-10-01T14:58:37.992Z,106.88
2018-10-01T14:59:37.996Z,101.25
2018-10-01T15:01:30.926Z,101.25
2018-10-01T15:02:30.921Z,101.25
2018-10-01T15:04:23.834Z,101.25
2018-10-01T15:05:23.856Z,101.25
2018-10-01T15:07:16.774Z,101.25
2018-10-01T15:08:16.786Z,106.88
2018-10-01T15:10:09.696Z,106.88
2018-10-01T15:11:09.713Z,95.63
2018-10-01T15:13:02.627Z,112.50
2018-10-01T15:14:02.635Z,118.13
2018-10-01T15:15:55.537Z,112.50
2018-10-01T15:16:55.589Z,118.13
2018-10-01T15:18:48.462Z,157.50
2018-10-01T15:19:48.469Z,196.88
2018-10-01T15:21:42.367Z,174.38
2018-10-01T15:22:42.387Z,151.88
2018-10-01T15:24:35.312Z,151.88
2018-10-01T15:25:35.302Z,151.88
2018-10-01T15:27:29.211Z,163.13
2018-10-01T15:28:29.224Z,157.50
2018-10-01T15:30:22.202Z,135.00
2018-10-01T15:31:22.171Z,129.38
2018-10-01T15:33:15.080Z,101.25
2018-10-01T15:34:15.095Z,95.63
2018-10-01T15:36:09.045Z,90.00
2018-10-01T15:37:09.012Z,84.38
2018-10-01T15:39:02.097Z,84.38
2018-10-01T15:40:02.107Z,84.38
2018-10-01T15:41:55.056Z,90.00
2018-10-01T15:42:55.027Z,84.38
2018-10-01T15:44:47.937Z,78.75
2018-10-01T15:45:47.946Z,78.75
2018-10-01T15:47:40.850Z,67.50
2018-10-01T15:48:40.870Z,67.50
2018-10-01T15:50:33.812Z,67.50
2018-10-01T15:51:33.823Z,67.50
2018-10-01T15:53:26.749Z,61.88
2018-10-01T15:54:26.743Z,67.50
2018-10-01T15:56:19.643Z,61.88
2018-10-01T15:57:19.661Z,61.88
2018-10-01T15:59:12.592Z,56.25
2018-10-01T16:00:12.600Z,56.25
2018-10-01T16:02:05.530Z,56.25
2018-10-01T16:03:05.545Z,56.25
2018-10-01T16:04:58.444Z,61.88
2018-10-01T16:05:58.454Z,67.50
2018-10-01T16:07:51.355Z,73.13
2018-10-01T16:08:51.371Z,78.75
2018-10-01T16:11:05.512Z,84.38
2018-10-01T16:11:44.448Z,78.75
2018-10-01T16:13:37.389Z,73.13
2018-10-01T16:14:37.371Z,67.50
2018-10-01T16:16:30.285Z,61.88
2018-10-01T16:17:30.293Z,61.88
2018-10-01T16:19:23.215Z,61.88
2018-10-01T16:20:23.211Z,56.25
2018-10-01T16:22:16.110Z,56.25
2018-10-01T16:23:16.128Z,50.63
2018-10-01T16:25:09.259Z,50.63
2018-10-01T16:26:09.270Z,45.00
2018-10-01T16:28:02.168Z,45.00
2018-10-01T16:29:02.186Z,45.00
2018-10-01T16:30:55.126Z,39.38
2018-10-01T16:31:55.115Z,39.38
2018-10-01T16:33:49.014Z,33.75
2018-10-01T16:34:49.032Z,33.75
2018-10-01T16:36:41.972Z,33.75
2018-10-01T16:37:41.973Z,33.75
2018-10-01T16:39:34.871Z,28.13
2018-10-01T16:40:34.888Z,28.13
2018-10-01T16:42:27.798Z,28.13
2018-10-01T16:43:27.807Z,28.13
2018-10-01T16:45:20.724Z,28.13
2018-10-01T16:46:20.726Z,22.50
2018-10-01T16:48:13.627Z,22.50
2018-10-01T16:49:13.653Z,22.50
2018-10-01T16:51:06.550Z,16.88
2018-10-01T16:52:06.649Z,16.88
2018-10-01T16:53:59.477Z,16.88
2018-10-01T16:54:59.477Z,11.25
2018-10-01T16:56:52.635Z,11.25
2018-10-01T16:57:52.627Z,11.25
2018-10-01T16:59:45.527Z,11.25
2018-10-01T17:00:45.548Z,11.25
2018-10-01T17:02:38.455Z,5.63
2018-10-01T17:03:38.457Z,5.63
2018-10-01T17:05:31.360Z,5.63
2018-10-01T17:06:31.374Z,5.63
2018-10-01T17:08:24.285Z,5.63
2018-10-01T17:09:24.291Z,0.00
2018-10-01T17:11:17.204Z,0.00
2018-10-01T17:12:17.207Z,0.00
2018-10-01T17:14:10.107Z,0.00
2018-10-01T17:15:10.187Z,0.00
2018-10-01T17:17:03.030Z,0.00
2018-10-01T17:18:03.037Z,0.00
2018-10-01T17:19:55.986Z,0.00
2018-10-01T17:20:55.980Z,0.00
2018-10-01T17:22:48.895Z,0.00
2018-10-01T17:23:48.887Z,0.00
2018-10-01T17:25:41.807Z,0.00
2018-10-01T17:26:41.835Z,0.00
2018-10-01T17:28:34.784Z,0.00
2018-10-01T17:29:34.744Z,0.00
2018-10-01T17:31:28.849Z,0.00
2018-10-01T17:32:28.852Z,0.00
2018-10-01T17:34:21.776Z,0.00
2018-10-01T17:35:21.768Z,0.00
2018-10-01T17:37:14.687Z,0.00
2018-10-01T17:38:14.711Z,0.00
2018-10-01T17:40:07.591Z,0.00
2018-10-01T17:41:07.597Z,0.00
2018-10-01T17:43:00.512Z,0.00
2018-10-01T17:44:00.520Z,0.00
2018-10-01T17:45:53.421Z,0.00
2018-10-01T17:46:53.437Z,0.00
2018-10-01T17:48:46.358Z,0.00
2018-10-01T17:49:46.369Z,0.00
2018-10-01T17:51:39.257Z,0.00
2018-10-01T17:52:39.276Z,0.00
2018-10-01T17:54:32.187Z,0.00
2018-10-01T17:55:32.199Z,0.00
2018-10-01T17:57:25.091Z,0.00
2018-10-01T17:58:25.110Z,0.00
2018-10-01T18:00:18.023Z,0.00
2018-10-01T18:01:18.022Z,0.00
2018-10-01T18:03:12.052Z,0.00
2018-10-01T18:04:11.940Z,0.00
2018-10-01T18:06:04.878Z,0.00
2018-10-01T18:07:04.849Z,0.00
2018-10-01T18:08:57.757Z,0.00
2018-10-01T18:09:57.792Z,0.00
2018-10-01T18:11:50.863Z,0.00
2018-10-01T18:12:50.678Z,0.00
2018-10-01T18:14:43.589Z,0.00
2018-10-01T18:15:43.594Z,0.00
2018-10-01T18:17:36.491Z,0.00
2018-10-01T18:18:36.507Z,0.00
2018-10-01T18:20:29.457Z,0.00
2018-10-01T18:21:29.457Z,0.00
2018-10-01T18:23:22.369Z,0.00
2018-10-01T18:24:22.433Z,0.00
2018-10-01T18:26:15.485Z,0.00
2018-10-01T18:27:15.494Z,0.00
2018-10-01T18:29:08.414Z,0.00
2018-10-01T18:30:08.426Z,0.00
2018-10-01T18:32:01.344Z,0.00
2018-10-01T18:33:01.318Z,0.00